createdAt,value
2018-05-18T01:01:01.000Z,99.90
2018-05-18T01:03:28.672Z,99.90
2018-05-18T01:05:56.173Z,99.90
2018-05-18T01:08:23.668Z,99.90
2018-05-18T01:10:51.940Z,99.90
2018-05-18T01:13:20.521Z,99.90
2018-05-18T01:15:48.473Z,99.90
2018-05-18T01:18:16.057Z,99.90
2018-05-18T01:20:44.436Z,99.90
2018-05-18T01:23:11.947Z,99.90
2018-05-18T01:25:39.490Z,99.90
2018-05-18T01:28:07.276Z,99.90
2018-05-18T01:30:34.765Z,99.90
2018-05-18T01:33:03.740Z,99.90
2018-05-18T01:35:31.230Z,99.90
2018-05-18T01:37:58.749Z,99.90
2018-05-18T01:40:26.245Z,99.90
2018-05-18T01:42:53.749Z,99.90
2018-05-18T01:45:21.655Z,99.90
2018-05-18T01:47:50.354Z,99.90
2018-05-18T01:50:17.872Z,99.90
2018-05-18T01:52:45.352Z,99.90
2018-05-18T01:55:13.632Z,99.90
2018-05-18T01:57:41.820Z,99.90
2018-05-18T02:00:10.362Z,99.90
2018-05-18T02:02:37.852Z,99.90
2018-05-18T02:05:05.517Z,99.90
2018-05-18T02:07:33.041Z,99.90
2018-05-18T02:10:00.534Z,99.90
2018-05-18T02:12:28.797Z,99.90
2018-05-18T02:14:57.820Z,99.90
2018-05-18T02:17:25.313Z,99.90
2018-05-18T02:19:52.819Z,99.90
2018-05-18T02:22:20.308Z,99.90
2018-05-18T02:24:47.807Z,99.90
2018-05-18T02:27:15.796Z,99.90
2018-05-18T02:29:43.409Z,99.90
2018-05-18T02:32:11.160Z,99.90
2018-05-18T02:34:38.674Z,99.90
2018-05-18T02:37:07.057Z,99.90
2018-05-18T02:39:34.728Z,99.90
2018-05-18T02:42:02.229Z,99.90
2018-05-18T02:44:29.730Z,99.90
2018-05-18T02:46:58.149Z,99.90
2018-05-18T02:49:25.800Z,99.90
2018-05-18T02:51:53.307Z,99.90
2018-05-18T02:54:20.809Z,99.90
2018-05-18T02:56:48.467Z,99.90
2018-05-18T02:59:16.619Z,99.90
2018-05-18T03:01:44.877Z,99.90
2018-05-18T03:04:12.466Z,99.90
2018-05-18T03:06:40.572Z,99.90
2018-05-18T03:09:10.832Z,99.90
2018-05-18T03:11:38.543Z,99.90
2018-05-18T03:14:06.159Z,99.90
2018-05-18T03:16:34.020Z,99.90
2018-05-18T03:19:01.561Z,99.90
2018-05-18T03:21:29.054Z,99.90
2018-05-18T03:23:57.345Z,99.90
2018-05-18T03:26:24.879Z,99.90
2018-05-18T03:28:52.400Z,99.90
2018-05-18T03:31:19.896Z,99.90
2018-05-18T03:33:47.426Z,99.90
2018-05-18T03:36:14.916Z,99.90
2018-05-18T03:38:42.409Z,99.90
2018-05-18T03:41:10.353Z,99.90
2018-05-18T03:43:38.233Z,99.90
2018-05-18T03:46:05.719Z,99.90
2018-05-18T03:48:33.467Z,99.90
2018-05-18T03:51:00.996Z,99.90
2018-05-18T03:53:28.696Z,99.90
2018-05-18T03:55:56.552Z,99.90
2018-05-18T03:58:24.059Z,99.90
2018-05-18T04:00:52.747Z,99.90
2018-05-18T04:03:32.415Z,99.90
2018-05-18T04:06:12.249Z,99.90
2018-05-18T04:08:52.057Z,99.90
2018-05-18T04:11:20.295Z,99.90
2018-05-18T04:13:47.780Z,99.90
2018-05-18T04:16:15.291Z,99.90
2018-05-18T04:18:44.729Z,99.90
2018-05-18T04:21:12.279Z,99.90
2018-05-18T04:23:43.461Z,99.90
2018-05-18T04:26:11.005Z,99.90
2018-05-18T04:28:38.498Z,99.90
2018-05-18T04:31:06.430Z,99.90
2018-05-18T04:33:33.938Z,99.90
2018-05-18T04:36:01.453Z,99.90
2018-05-18T04:38:28.952Z,99.90
2018-05-18T04:40:56.753Z,99.90
2018-05-18T04:43:24.438Z,99.90
2018-05-18T04:45:51.936Z,99.90
2018-05-18T04:48:20.353Z,99.90
2018-05-18T04:50:47.855Z,99.90
2018-05-18T04:53:15.370Z,99.90
2018-05-18T04:55:43.540Z,99.90
2018-05-18T04:58:11.218Z,99.90
2018-05-18T05:00:38.867Z,99.90
2018-05-18T05:03:06.351Z,99.90
2018-05-18T05:05:34.479Z,99.90
2018-05-18T05:08:01.931Z,99.90
2018-05-18T05:10:30.425Z,99.90
2018-05-18T05:12:59.261Z,99.90
2018-05-18T05:15:26.991Z,99.90
2018-05-18T05:17:55.299Z,99.90
2018-05-18T05:20:22.791Z,99.90
2018-05-18T05:22:50.289Z,99.90
2018-05-18T05:25:18.345Z,99.90
2018-05-18T05:27:46.415Z,99.90
2018-05-18T05:30:14.032Z,99.90
2018-05-18T05:32:43.096Z,99.90
2018-05-18T05:35:10.670Z,99.90
2018-05-18T05:37:38.337Z,99.90
2018-05-18T05:40:05.831Z,99.90
2018-05-18T05:42:33.329Z,99.90
2018-05-18T05:45:02.118Z,99.90
2018-05-18T05:47:29.617Z,99.90
2018-05-18T05:49:57.463Z,99.90
2018-05-18T05:52:25.129Z,99.90
2018-05-18T05:54:52.761Z,99.90
2018-05-18T05:57:20.269Z,99.90
2018-05-18T05:59:47.774Z,99.90
2018-05-18T06:02:16.159Z,99.90
2018-05-18T06:04:44.229Z,99.90
2018-05-18T06:07:12.499Z,99.90
2018-05-18T06:09:40.765Z,99.90
2018-05-18T06:12:11.805Z,99.90
2018-05-18T06:14:39.693Z,99.90
2018-05-18T06:17:07.182Z,99.90
2018-05-18T06:19:34.757Z,99.90
2018-05-18T06:22:03.495Z,99.90
2018-05-18T06:24:31.165Z,99.90
2018-05-18T06:26:58.704Z,99.90
2018-05-18T06:29:27.107Z,99.90
2018-05-18T06:31:54.921Z,99.90
2018-05-18T06:34:22.428Z,99.90
2018-05-18T06:36:50.685Z,99.90
2018-05-18T06:39:18.193Z,99.10
2018-05-18T06:41:45.932Z,98.10
2018-05-18T06:44:13.992Z,96.50
2018-05-18T06:46:41.494Z,95.40
2018-05-18T06:49:08.997Z,95.90
2018-05-18T06:51:37.428Z,95.30
2018-05-18T06:54:04.931Z,92.90
2018-05-18T06:56:32.747Z,93.20
2018-05-18T06:59:00.393Z,90.90
2018-05-18T07:01:28.590Z,90.40
2018-05-18T07:03:56.163Z,91.00
2018-05-18T07:06:23.620Z,91.00
2018-05-18T07:08:51.117Z,89.40
2018-05-18T07:11:18.630Z,86.60
2018-05-18T07:13:47.116Z,83.30
2018-05-18T07:16:14.757Z,84.00
2018-05-18T07:18:42.284Z,80.80
2018-05-18T07:21:11.117Z,80.20
2018-05-18T07:23:38.628Z,78.90
2018-05-18T07:26:06.545Z,74.80
2018-05-18T07:28:34.040Z,75.40
2018-05-18T07:31:01.580Z,73.80
2018-05-18T07:33:29.405Z,68.10
2018-05-18T07:35:57.479Z,70.00
2018-05-18T07:38:24.981Z,71.80
2018-05-18T07:40:52.489Z,70.20
2018-05-18T07:43:20.015Z,65.10
2018-05-18T07:45:47.923Z,68.90
2018-05-18T07:48:15.445Z,60.90
2018-05-18T07:50:44.038Z,53.80
2018-05-18T07:53:11.701Z,53.80
2018-05-18T07:55:39.201Z,55.00
2018-05-18T07:58:06.713Z,56.90
2018-05-18T08:00:34.223Z,53.70
2018-05-18T08:03:01.748Z,50.70
2018-05-18T08:05:29.818Z,53.30
2018-05-18T08:07:57.449Z,57.40
2018-05-18T08:10:24.897Z,56.00
2018-05-18T08:12:52.399Z,55.00
2018-05-18T08:15:20.306Z,57.90
2018-05-18T08:17:47.907Z,56.50
2018-05-18T08:20:16.175Z,52.20
2018-05-18T08:22:44.486Z,52.20
2018-05-18T08:25:11.976Z,54.90
2018-05-18T08:27:39.689Z,51.00
2018-05-18T08:30:07.114Z,52.40
2018-05-18T08:32:34.616Z,53.80
2018-05-18T08:35:02.488Z,53.90
2018-05-18T08:37:30.174Z,54.00
2018-05-18T08:39:57.685Z,51.50
2018-05-18T08:42:25.586Z,52.20
2018-05-18T08:44:53.425Z,52.50
2018-05-18T08:47:21.722Z,52.60
2018-05-18T08:49:49.278Z,52.60
2018-05-18T08:52:16.793Z,47.80
2018-05-18T08:54:44.308Z,46.30
2018-05-18T08:57:12.015Z,45.60
2018-05-18T08:59:39.522Z,46.30
2018-05-18T09:02:07.063Z,40.10
2018-05-18T09:04:34.590Z,44.60
2018-05-18T09:07:02.692Z,47.10
2018-05-18T09:09:30.227Z,44.30
2018-05-18T09:11:57.729Z,46.20
2018-05-18T09:14:25.234Z,46.00
2018-05-18T09:16:53.094Z,44.40
2018-05-18T09:19:20.690Z,42.90
2018-05-18T09:21:48.282Z,41.40
2018-05-18T09:24:15.719Z,42.60
2018-05-18T09:26:43.220Z,42.10
2018-05-18T09:29:10.714Z,43.80
2018-05-18T09:31:38.226Z,43.40
2018-05-18T09:34:05.803Z,42.30
2018-05-18T09:36:33.631Z,39.30
2018-05-18T09:39:02.043Z,40.30
2018-05-18T09:41:30.300Z,44.40
2018-05-18T09:43:58.510Z,47.70
2018-05-18T09:46:27.734Z,50.30
2018-05-18T09:48:56.408Z,53.30
2018-05-18T09:51:28.209Z,50.00
2018-05-18T09:53:55.733Z,50.00
2018-05-18T09:56:24.347Z,49.40
2018-05-18T09:58:52.003Z,49.50
2018-05-18T10:01:19.773Z,52.70
2018-05-18T10:03:47.317Z,48.60
2018-05-18T10:06:14.916Z,46.30
2018-05-18T10:08:42.704Z,47.60
2018-05-18T10:11:10.249Z,46.40
2018-05-18T10:13:37.751Z,48.10
2018-05-18T10:16:09.862Z,44.00
2018-05-18T10:18:38.068Z,44.00
2018-05-18T10:21:05.989Z,45.90
2018-05-18T10:23:33.537Z,41.10
2018-05-18T10:26:01.784Z,42.20
2018-05-18T10:28:29.274Z,49.40
2018-05-18T10:30:56.795Z,49.80
2018-05-18T10:33:24.890Z,48.10
2018-05-18T10:35:52.389Z,50.50
2018-05-18T10:38:19.917Z,54.00
2018-05-18T10:40:47.472Z,53.40
2018-05-18T10:43:14.966Z,53.70
2018-05-18T10:45:42.475Z,54.30
2018-05-18T10:48:10.664Z,46.90
2018-05-18T10:50:38.149Z,45.40
2018-05-18T10:53:05.761Z,42.80
2018-05-18T10:55:33.848Z,43.40
2018-05-18T10:58:01.350Z,44.20
2018-05-18T11:00:29.122Z,48.40
2018-05-18T11:02:56.730Z,48.10
2018-05-18T11:05:25.197Z,48.20
2018-05-18T11:07:52.712Z,50.90
2018-05-18T11:10:20.224Z,53.40
2018-05-18T11:12:47.730Z,52.80
2018-05-18T11:15:15.602Z,55.00
2018-05-18T11:17:43.110Z,54.60
2018-05-18T11:20:10.701Z,49.20
2018-05-18T11:22:38.303Z,49.80
2018-05-18T11:25:06.573Z,47.20
2018-05-18T11:27:35.080Z,45.10
2018-05-18T11:30:02.645Z,45.10
2018-05-18T11:32:30.287Z,45.20
2018-05-18T11:34:57.794Z,45.40
2018-05-18T11:37:25.328Z,47.20
2018-05-18T11:39:52.824Z,48.00
2018-05-18T11:42:20.324Z,46.60
2018-05-18T11:44:48.620Z,50.40
2018-05-18T11:47:16.151Z,50.40
2018-05-18T11:49:44.255Z,52.50
2018-05-18T11:52:11.756Z,55.40
2018-05-18T11:54:39.327Z,55.50
2018-05-18T11:57:07.172Z,55.00
2018-05-18T11:59:34.670Z,57.40
2018-05-18T12:02:02.362Z,55.90
2018-05-18T12:04:29.863Z,50.90
2018-05-18T12:07:05.768Z,53.10
2018-05-18T12:09:34.620Z,52.50
2018-05-18T12:12:02.322Z,54.20
2018-05-18T12:14:30.171Z,56.40
2018-05-18T12:16:59.429Z,54.50
2018-05-18T12:19:27.108Z,54.20
2018-05-18T12:21:54.695Z,50.80
2018-05-18T12:24:22.203Z,49.60
2018-05-18T12:26:50.436Z,53.40
2018-05-18T12:29:17.954Z,53.20
2018-05-18T12:31:45.741Z,57.20
2018-05-18T12:34:17.578Z,52.60
2018-05-18T12:36:45.449Z,51.60
2018-05-18T12:39:14.060Z,50.60
2018-05-18T12:41:42.079Z,50.10
2018-05-18T12:44:09.921Z,50.50
2018-05-18T12:46:37.580Z,49.90
2018-05-18T12:49:05.279Z,52.50
2018-05-18T12:51:32.808Z,53.50
2018-05-18T12:54:01.241Z,52.20
2018-05-18T12:56:28.881Z,52.20
2018-05-18T12:58:57.157Z,56.90
2018-05-18T13:01:25.019Z,53.60
2018-05-18T13:03:52.535Z,52.20
2018-05-18T13:06:20.079Z,49.40
2018-05-18T13:08:49.343Z,50.20
2018-05-18T13:11:16.907Z,50.70
2018-05-18T13:13:44.430Z,50.60
2018-05-18T13:16:12.079Z,50.30
2018-05-18T13:18:40.365Z,50.60
2018-05-18T13:21:08.860Z,49.90
2018-05-18T13:23:36.352Z,49.90
2018-05-18T13:26:03.877Z,52.00
2018-05-18T13:28:31.384Z,50.80
2018-05-18T13:30:59.201Z,48.80
2018-05-18T13:33:26.709Z,49.00
2018-05-18T13:35:54.219Z,51.10
2018-05-18T13:38:21.729Z,51.60
2018-05-18T13:40:49.270Z,51.00
2018-05-18T13:43:16.810Z,48.00
2018-05-18T13:45:44.410Z,51.00
2018-05-18T13:48:11.937Z,49.10
2018-05-18T13:50:39.449Z,49.10
2018-05-18T13:53:07.151Z,50.40
2018-05-18T13:55:34.801Z,48.50
2018-05-18T13:58:02.760Z,48.70
2018-05-18T14:00:31.181Z,47.90
2018-05-18T14:02:59.196Z,47.40
2018-05-18T14:05:26.915Z,52.40
2018-05-18T14:07:54.446Z,52.70
2018-05-18T14:10:21.956Z,48.80
2018-05-18T14:12:49.838Z,50.10
2018-05-18T14:15:17.737Z,48.20
2018-05-18T14:17:45.252Z,50.20
2018-05-18T14:20:12.949Z,50.40
2018-05-18T14:22:40.521Z,51.50
2018-05-18T14:25:08.059Z,50.60
2018-05-18T14:27:35.557Z,52.40
2018-05-18T14:30:03.061Z,51.30
2018-05-18T14:32:31.896Z,54.00
2018-05-18T14:34:59.564Z,54.00
2018-05-18T14:37:27.081Z,52.10
2018-05-18T14:39:54.657Z,50.50
2018-05-18T14:42:22.197Z,50.80
2018-05-18T14:44:50.078Z,49.70
2018-05-18T14:47:17.570Z,48.50
2018-05-18T14:49:45.085Z,49.60
2018-05-18T14:52:12.750Z,50.60
2018-05-18T14:54:40.319Z,50.50
2018-05-18T14:57:07.849Z,48.90
2018-05-18T14:59:36.410Z,50.50
2018-05-18T15:02:04.169Z,50.40
2018-05-18T15:04:31.658Z,51.80
2018-05-18T15:07:00.341Z,50.30
2018-05-18T15:09:28.631Z,50.30
2018-05-18T15:11:56.145Z,51.30
2018-05-18T15:14:23.661Z,50.90
2018-05-18T15:16:51.416Z,50.30
2018-05-18T15:19:19.699Z,51.30
2018-05-18T15:21:47.209Z,47.30
2018-05-18T15:24:15.333Z,46.80
2018-05-18T15:26:42.835Z,50.50
2018-05-18T15:29:10.333Z,50.40
2018-05-18T15:31:37.833Z,51.70
2018-05-18T15:34:05.363Z,52.60
2018-05-18T15:36:32.861Z,53.60
2018-05-18T15:39:00.370Z,51.80
2018-05-18T15:41:27.937Z,54.50
2018-05-18T15:43:55.496Z,51.50
2018-05-18T15:46:23.038Z,52.30
2018-05-18T15:48:51.337Z,54.40
2018-05-18T15:51:18.857Z,54.40
2018-05-18T15:53:47.132Z,53.10
2018-05-18T15:56:14.634Z,53.00
2018-05-18T15:58:42.572Z,52.10
2018-05-18T16:01:11.739Z,55.10
2018-05-18T16:03:39.281Z,55.10
2018-05-18T16:06:06.790Z,54.20
2018-05-18T16:08:34.378Z,53.90
2018-05-18T16:11:01.914Z,53.80
2018-05-18T16:13:29.515Z,51.80
2018-05-18T16:15:57.585Z,51.50
2018-05-18T16:18:25.074Z,53.30
2018-05-18T16:20:52.851Z,53.00
2018-05-18T16:23:20.339Z,53.90
2018-05-18T16:25:47.835Z,53.70
2018-05-18T16:28:15.465Z,52.30
2018-05-18T16:30:42.885Z,52.30
2018-05-18T16:33:11.138Z,53.70
2018-05-18T16:35:38.751Z,53.70
2018-05-18T16:38:06.827Z,54.90
2018-05-18T16:40:34.366Z,54.10
2018-05-18T16:43:01.865Z,53.70
2018-05-18T16:45:30.185Z,54.50
2018-05-18T16:47:57.879Z,54.20
2018-05-18T16:50:25.383Z,53.70
2018-05-18T16:52:53.014Z,55.70
2018-05-18T16:55:20.442Z,55.50
2018-05-18T16:57:47.948Z,54.40
2018-05-18T17:00:15.879Z,55.20
2018-05-18T17:02:43.385Z,55.80
2018-05-18T17:05:12.442Z,56.10
2018-05-18T17:07:39.964Z,55.80
2018-05-18T17:10:07.477Z,55.90
2018-05-18T17:12:34.991Z,55.20
2018-05-18T17:15:02.556Z,55.90
2018-05-18T17:17:30.059Z,54.60
2018-05-18T17:19:58.581Z,55.60
2018-05-18T17:22:26.227Z,56.10
2018-05-18T17:24:53.824Z,55.40
2018-05-18T17:27:21.318Z,54.90
2018-05-18T17:29:49.582Z,56.10
2018-05-18T17:32:17.114Z,55.30
2018-05-18T17:34:45.014Z,57.90
2018-05-18T17:37:12.639Z,56.40
2018-05-18T17:39:41.038Z,57.80
2018-05-18T17:42:08.568Z,59.70
2018-05-18T17:44:36.071Z,60.60
2018-05-18T17:47:04.398Z,60.40
2018-05-18T17:49:31.907Z,62.30
2018-05-18T17:52:10.079Z,60.40
2018-05-18T17:54:37.579Z,61.00
2018-05-18T17:57:05.114Z,61.10
2018-05-18T17:59:32.612Z,60.80
2018-05-18T18:02:00.329Z,61.80
2018-05-18T18:04:27.839Z,61.90
2018-05-18T18:06:55.355Z,61.80
2018-05-18T18:09:23.165Z,63.00
2018-05-18T18:11:51.119Z,63.80
2018-05-18T18:14:18.612Z,63.60
2018-05-18T18:16:46.152Z,67.50
2018-05-18T18:19:14.428Z,69.20
2018-05-18T18:21:42.695Z,67.50
2018-05-18T18:24:10.185Z,67.40
2018-05-18T18:26:38.989Z,68.70
2018-05-18T18:29:06.772Z,68.20
2018-05-18T18:31:34.359Z,69.30
2018-05-18T18:34:01.870Z,70.10
2018-05-18T18:36:30.457Z,71.60
2018-05-18T18:38:58.117Z,71.50
2018-05-18T18:41:25.641Z,72.60
2018-05-18T18:43:53.333Z,74.40
2018-05-18T18:46:20.840Z,75.40
2018-05-18T18:48:48.434Z,75.40
2018-05-18T18:51:16.135Z,76.70
2018-05-18T18:53:44.068Z,77.30
2018-05-18T18:56:11.615Z,77.60
2018-05-18T18:58:39.170Z,78.10
2018-05-18T19:01:06.648Z,79.10
2018-05-18T19:03:34.477Z,79.80
2018-05-18T19:06:02.801Z,80.70
2018-05-18T19:08:30.315Z,81.30
2018-05-18T19:10:57.845Z,82.00
2018-05-18T19:13:25.384Z,81.70
2018-05-18T19:15:53.112Z,82.20
2018-05-18T19:18:21.209Z,83.40
2018-05-18T19:20:48.848Z,83.60
2018-05-18T19:23:16.540Z,83.50
2018-05-18T19:25:44.072Z,84.20
2018-05-18T19:28:11.596Z,84.50
2018-05-18T19:30:39.107Z,86.00
2018-05-18T19:33:07.162Z,85.50
2018-05-18T19:35:34.656Z,86.40
2018-05-18T19:38:02.307Z,86.70
2018-05-18T19:40:30.073Z,86.80
2018-05-18T19:42:57.643Z,88.00
2018-05-18T19:45:25.183Z,88.70
2018-05-18T19:47:52.703Z,89.00
2018-05-18T19:50:20.205Z,89.40
2018-05-18T19:52:48.054Z,90.00
2018-05-18T19:55:15.540Z,90.30
2018-05-18T19:57:43.739Z,90.30
2018-05-18T20:00:11.536Z,90.80
2018-05-18T20:02:39.072Z,90.50
2018-05-18T20:05:06.930Z,90.70
2018-05-18T20:07:34.595Z,91.40
2018-05-18T20:10:02.407Z,92.50
2018-05-18T20:12:30.567Z,93.40
2018-05-18T20:14:58.149Z,93.80
2018-05-18T20:17:25.685Z,94.10
2018-05-18T20:19:53.202Z,94.40
2018-05-18T20:22:20.713Z,94.80
2018-05-18T20:24:48.222Z,95.30
2018-05-18T20:27:16.466Z,95.30
2018-05-18T20:29:45.989Z,95.60
2018-05-18T20:32:19.869Z,96.40
2018-05-18T20:34:48.134Z,97.10
2018-05-18T20:37:16.943Z,97.30
2018-05-18T20:39:44.494Z,97.30
2018-05-18T20:42:13.068Z,98.70
2018-05-18T20:44:41.689Z,99.00
2018-05-18T20:47:09.540Z,98.50
2018-05-18T20:49:37.068Z,98.90
2018-05-18T20:52:05.354Z,99.10
2018-05-18T20:54:33.613Z,99.90
2018-05-18T20:57:02.012Z,99.90
2018-05-18T20:59:29.840Z,99.90
2018-05-18T21:01:57.348Z,99.90
2018-05-18T21:04:25.250Z,99.90
2018-05-18T21:06:52.741Z,99.90
2018-05-18T21:09:21.015Z,99.90
2018-05-18T21:11:48.706Z,99.90
2018-05-18T21:14:16.201Z,99.90
2018-05-18T21:16:43.702Z,99.60
2018-05-18T21:19:11.610Z,99.10
2018-05-18T21:21:39.098Z,99.10
2018-05-18T21:24:06.882Z,99.10
2018-05-18T21:26:34.566Z,98.90
2018-05-18T21:29:02.105Z,99.30
2018-05-18T21:31:29.603Z,99.20
2018-05-18T21:33:57.373Z,99.50
2018-05-18T21:36:24.885Z,99.40
2018-05-18T21:38:52.391Z,99.60
2018-05-18T21:41:21.986Z,99.90
2018-05-18T21:43:49.475Z,99.80
2018-05-18T21:46:17.003Z,99.30
2018-05-18T21:48:44.493Z,98.60
2018-05-18T21:51:11.995Z,98.30
2018-05-18T21:53:41.024Z,98.60
2018-05-18T21:56:08.548Z,98.60
